sensor_id;sensor_type;location;lat;lon;timestamp;temperature;humidity
57719;DHT22;43561;50.090;18.522;2023-04-25T00:09:51;10.00;99.90
57719;DHT22;43561;50.090;18.522;2023-04-25T00:19:53;10.00;99.90
57719;DHT22;43561;50.090;18.522;2023-04-25T00:29:55;10.00;99.90
57719;DHT22;43561;50.090;18.522;2023-04-25T00:39:58;10.00;99.90
57719;DHT22;43561;50.090;18.522;2023-04-25T00:50:00;9.90;99.90
57719;DHT22;43561;50.090;18.522;2023-04-25T01:00:04;9.80;99.90
57719;DHT22;43561;50.090;18.522;2023-04-25T01:10:06;9.60;99.90
57719;DHT22;43561;50.090;18.522;2023-04-25T01:20:09;9.50;99.90
57719;DHT22;43561;50.090;18.522;2023-04-25T01:30:13;9.40;99.90
57719;DHT22;43561;50.090;18.522;2023-04-25T01:40:16;9.30;99.90
57719;DHT22;43561;50.090;18.522;2023-04-25T01:50:19;9.20;99.90
57719;DHT22;43561;50.090;18.522;2023-04-25T02:00:22;9.00;99.90
57719;DHT22;43561;50.090;18.522;2023-04-25T02:10:24;8.90;99.90
57719;DHT22;43561;50.090;18.522;2023-04-25T02:20:41;8.80;99.90
57719;DHT22;43561;50.090;18.522;2023-04-25T02:30:44;8.70;99.90
57719;DHT22;43561;50.090;18.522;2023-04-25T02:40:45;8.60;99.90
57719;DHT22;43561;50.090;18.522;2023-04-25T02:50:47;8.60;99.90
57719;DHT22;43561;50.090;18.522;2023-04-25T03:00:49;8.50;99.90
57719;DHT22;43561;50.090;18.522;2023-04-25T03:10:51;8.50;99.90
57719;DHT22;43561;50.090;18.522;2023-04-25T03:20:54;8.50;99.90
57719;DHT22;43561;50.090;18.522;2023-04-25T03:30:56;8.50;99.90
57719;DHT22;43561;50.090;18.522;2023-04-25T03:41:01;8.40;99.90
57719;DHT22;43561;50.090;18.522;2023-04-25T03:51:32;8.40;99.90
57719;DHT22;43561;50.090;18.522;2023-04-25T04:01:36;8.20;99.90
57719;DHT22;43561;50.090;18.522;2023-04-25T04:11:39;8.20;99.90
57719;DHT22;43561;50.090;18.522;2023-04-25T04:21:41;8.20;99.90
57719;DHT22;43561;50.090;18.522;2023-04-25T04:31:51;8.40;99.90
57719;DHT22;43561;50.090;18.522;2023-04-25T04:41:54;8.60;99.90
57719;DHT22;43561;50.090;18.522;2023-04-25T04:52:16;8.50;99.90
57719;DHT22;43561;50.090;18.522;2023-04-25T05:02:38;8.50;99.90
57719;DHT22;43561;50.090;18.522;2023-04-25T05:12:59;8.60;99.90
57719;DHT22;43561;50.090;18.522;2023-04-25T05:23:27;8.60;99.90
57719;DHT22;43561;50.090;18.522;2023-04-25T05:33:37;8.50;99.90
57719;DHT22;43561;50.090;18.522;2023-04-25T05:43:40;8.60;99.90
57719;DHT22;43561;50.090;18.522;2023-04-25T05:53:55;8.50;99.90
57719;DHT22;43561;50.090;18.522;2023-04-25T06:03:57;8.70;99.90
57719;DHT22;43561;50.090;18.522;2023-04-25T06:14:00;8.80;99.90
57719;DHT22;43561;50.090;18.522;2023-04-25T06:24:03;9.00;99.90
57719;DHT22;43561;50.090;18.522;2023-04-25T06:34:05;9.30;99.90
57719;DHT22;43561;50.090;18.522;2023-04-25T06:44:11;9.20;99.90
57719;DHT22;43561;50.090;18.522;2023-04-25T06:54:22;9.30;99.90
57719;DHT22;43561;50.090;18.522;2023-04-25T07:04:33;9.30;99.90
57719;DHT22;43561;50.090;18.522;2023-04-25T07:14:37;9.50;99.90
57719;DHT22;43561;50.090;18.522;2023-04-25T07:24:39;10.00;99.90
57719;DHT22;43561;50.090;18.522;2023-04-25T07:34:43;10.40;99.90
57719;DHT22;43561;50.090;18.522;2023-04-25T07:44:45;10.50;99.90
57719;DHT22;43561;50.090;18.522;2023-04-25T07:54:49;10.80;99.90
57719;DHT22;43561;50.090;18.522;2023-04-25T08:04:56;10.60;99.90
57719;DHT22;43561;50.090;18.522;2023-04-25T08:14:59;11.50;99.90
57719;DHT22;43561;50.090;18.522;2023-04-25T08:25:06;11.10;99.90
57719;DHT22;43561;50.090;18.522;2023-04-25T08:35:09;11.20;99.60
57719;DHT22;43561;50.090;18.522;2023-04-25T08:45:11;11.30;99.90
57719;DHT22;43561;50.090;18.522;2023-04-25T08:55:16;11.20;99.90
57719;DHT22;43561;50.090;18.522;2023-04-25T09:05:19;11.80;99.50
57719;DHT22;43561;50.090;18.522;2023-04-25T09:15:26;12.00;98.40
57719;DHT22;43561;50.090;18.522;2023-04-25T09:25:44;12.00;97.50
57719;DHT22;43561;50.090;18.522;2023-04-25T09:35:48;12.10;98.60
57719;DHT22;43561;50.090;18.522;2023-04-25T09:45:58;12.00;96.30
57719;DHT22;43561;50.090;18.522;2023-04-25T09:56:07;11.80;96.40
57719;DHT22;43561;50.090;18.522;2023-04-25T10:06:14;12.30;96.70
57719;DHT22;43561;50.090;18.522;2023-04-25T10:16:18;11.90;96.40
57719;DHT22;43561;50.090;18.522;2023-04-25T10:26:21;12.60;93.80
57719;DHT22;43561;50.090;18.522;2023-04-25T10:36:24;12.10;91.70
57719;DHT22;43561;50.090;18.522;2023-04-25T10:46:27;11.70;90.30
57719;DHT22;43561;50.090;18.522;2023-04-25T11:06:52;12.20;87.90
57719;DHT22;43561;50.090;18.522;2023-04-25T11:17:06;12.30;85.50
57719;DHT22;43561;50.090;18.522;2023-04-25T11:27:08;12.10;85.00
57719;DHT22;43561;50.090;18.522;2023-04-25T11:37:10;11.70;82.40
57719;DHT22;43561;50.090;18.522;2023-04-25T11:47:12;11.80;82.30
57719;DHT22;43561;50.090;18.522;2023-04-25T11:57:14;11.80;82.00
57719;DHT22;43561;50.090;18.522;2023-04-25T12:07:16;11.70;81.70
57719;DHT22;43561;50.090;18.522;2023-04-25T12:17:18;11.90;83.00
57719;DHT22;43561;50.090;18.522;2023-04-25T12:27:20;12.20;80.60
57719;DHT22;43561;50.090;18.522;2023-04-25T12:37:22;12.20;78.00
57719;DHT22;43561;50.090;18.522;2023-04-25T12:47:24;12.30;78.50
57719;DHT22;43561;50.090;18.522;2023-04-25T12:57:26;12.30;78.50
57719;DHT22;43561;50.090;18.522;2023-04-25T13:07:28;12.60;77.20
57719;DHT22;43561;50.090;18.522;2023-04-25T13:17:30;13.20;74.70
57719;DHT22;43561;50.090;18.522;2023-04-25T13:27:33;13.20;72.40
57719;DHT22;43561;50.090;18.522;2023-04-25T13:37:35;13.40;75.80
57719;DHT22;43561;50.090;18.522;2023-04-25T13:47:37;13.30;73.80
57719;DHT22;43561;50.090;18.522;2023-04-25T13:57:39;13.30;71.20
57719;DHT22;43561;50.090;18.522;2023-04-25T14:07:42;12.90;71.10
57719;DHT22;43561;50.090;18.522;2023-04-25T14:17:44;13.30;72.10
57719;DHT22;43561;50.090;18.522;2023-04-25T14:27:46;12.70;72.40
57719;DHT22;43561;50.090;18.522;2023-04-25T14:37:48;12.50;74.20
57719;DHT22;43561;50.090;18.522;2023-04-25T14:47:50;12.60;74.40
57719;DHT22;43561;50.090;18.522;2023-04-25T14:57:55;13.00;75.40
57719;DHT22;43561;50.090;18.522;2023-04-25T15:07:58;12.80;76.00
57719;DHT22;43561;50.090;18.522;2023-04-25T15:18:00;12.60;74.90
57719;DHT22;43561;50.090;18.522;2023-04-25T15:28:02;12.30;72.50
57719;DHT22;43561;50.090;18.522;2023-04-25T15:38:04;12.60;74.60
57719;DHT22;43561;50.090;18.522;2023-04-25T15:48:06;12.50;74.60
57719;DHT22;43561;50.090;18.522;2023-04-25T15:58:08;12.10;74.30
57719;DHT22;43561;50.090;18.522;2023-04-25T16:08:13;12.10;74.20
57719;DHT22;43561;50.090;18.522;2023-04-25T16:18:15;12.10;73.00
57719;DHT22;43561;50.090;18.522;2023-04-25T16:28:17;11.90;72.20
57719;DHT22;43561;50.090;18.522;2023-04-25T16:38:19;12.00;72.70
57719;DHT22;43561;50.090;18.522;2023-04-25T16:48:21;12.00;71.80
57719;DHT22;43561;50.090;18.522;2023-04-25T16:58:24;11.90;71.10
57719;DHT22;43561;50.090;18.522;2023-04-25T17:08:26;11.80;68.20
57719;DHT22;43561;50.090;18.522;2023-04-25T17:18:28;11.70;67.50
57719;DHT22;43561;50.090;18.522;2023-04-25T17:28:30;11.50;67.30
57719;DHT22;43561;50.090;18.522;2023-04-25T17:38:32;11.30;67.90
57719;DHT22;43561;50.090;18.522;2023-04-25T17:48:34;11.20;70.30
57719;DHT22;43561;50.090;18.522;2023-04-25T17:58:35;11.10;74.30
57719;DHT22;43561;50.090;18.522;2023-04-25T18:08:37;10.80;77.30
57719;DHT22;43561;50.090;18.522;2023-04-25T18:18:39;10.70;79.50
57719;DHT22;43561;50.090;18.522;2023-04-25T18:28:41;10.50;81.70
57719;DHT22;43561;50.090;18.522;2023-04-25T18:38:43;10.30;85.80
57719;DHT22;43561;50.090;18.522;2023-04-25T18:48:45;10.20;90.30
57719;DHT22;43561;50.090;18.522;2023-04-25T18:58:47;10.10;93.10
57719;DHT22;43561;50.090;18.522;2023-04-25T19:08:50;10.00;94.90
57719;DHT22;43561;50.090;18.522;2023-04-25T19:18:53;10.00;95.10
57719;DHT22;43561;50.090;18.522;2023-04-25T19:29:09;10.00;95.90
57719;DHT22;43561;50.090;18.522;2023-04-25T19:39:11;9.70;97.30
57719;DHT22;43561;50.090;18.522;2023-04-25T19:49:13;9.60;98.40
57719;DHT22;43561;50.090;18.522;2023-04-25T19:59:15;9.50;99.20
57719;DHT22;43561;50.090;18.522;2023-04-25T20:09:17;9.50;99.90
57719;DHT22;43561;50.090;18.522;2023-04-25T20:19:19;9.40;99.90
57719;DHT22;43561;50.090;18.522;2023-04-25T20:29:25;9.30;99.90
57719;DHT22;43561;50.090;18.522;2023-04-25T20:39:26;9.10;99.90
57719;DHT22;43561;50.090;18.522;2023-04-25T20:49:28;8.80;99.90
57719;DHT22;43561;50.090;18.522;2023-04-25T20:59:31;8.70;99.90
57719;DHT22;43561;50.090;18.522;2023-04-25T21:09:33;8.60;99.90
57719;DHT22;43561;50.090;18.522;2023-04-25T21:19:34;8.50;99.90
57719;DHT22;43561;50.090;18.522;2023-04-25T21:29:36;8.40;99.90
57719;DHT22;43561;50.090;18.522;2023-04-25T21:39:38;8.30;99.90
57719;DHT22;43561;50.090;18.522;2023-04-25T21:49:40;8.20;99.90
57719;DHT22;43561;50.090;18.522;2023-04-25T21:59:42;8.20;99.90
57719;DHT22;43561;50.090;18.522;2023-04-25T22:09:44;8.00;99.90
57719;DHT22;43561;50.090;18.522;2023-04-25T22:19:56;7.90;99.90
57719;DHT22;43561;50.090;18.522;2023-04-25T22:29:58;7.80;99.90
57719;DHT22;43561;50.090;18.522;2023-04-25T22:40:03;7.70;99.90
57719;DHT22;43561;50.090;18.522;2023-04-25T22:50:06;7.60;99.90
57719;DHT22;43561;50.090;18.522;2023-04-25T23:00:09;7.60;99.90
57719;DHT22;43561;50.090;18.522;2023-04-25T23:10:12;7.40;99.90
57719;DHT22;43561;50.090;18.522;2023-04-25T23:20:14;7.40;99.90
57719;DHT22;43561;50.090;18.522;2023-04-25T23:30:16;7.30;99.90
57719;DHT22;43561;50.090;18.522;2023-04-25T23:40:18;7.20;99.90
57719;DHT22;43561;50.090;18.522;2023-04-25T23:50:20;7.10;99.90
